createdAt,value
2018-06-02T00:00:36.716Z,999.04
2018-06-02T00:01:46.799Z,999.03
2018-06-02T00:02:56.865Z,999.04
2018-06-02T00:04:06.988Z,999.02
2018-06-02T00:05:17.061Z,999.01
2018-06-02T00:06:26.882Z,999.01
2018-06-02T00:07:36.772Z,999.01
2018-06-02T00:08:46.865Z,999.01
2018-06-02T00:09:56.936Z,998.98
2018-06-02T00:11:07.019Z,998.97
2018-06-02T00:12:16.047Z,998.91
2018-06-02T00:13:26.141Z,998.88
2018-06-02T00:14:35.948Z,998.9
2018-06-02T00:15:46.040Z,998.88
2018-06-02T00:16:56.110Z,998.89
2018-06-02T00:18:06.199Z,998.88
2018-06-02T00:19:16.315Z,998.84
2018-06-02T00:20:26.126Z,998.86
2018-06-02T00:21:36.221Z,998.87
2018-06-02T00:22:46.304Z,998.86
2018-06-02T00:23:56.391Z,998.86
2018-06-02T00:25:06.485Z,998.78
2018-06-02T00:26:16.317Z,998.78
2018-06-02T00:27:26.153Z,998.77
2018-06-02T00:28:36.239Z,998.75
2018-06-02T00:29:46.049Z,998.75
2018-06-02T00:30:56.138Z,998.77
2018-06-02T00:32:06.220Z,998.72
2018-06-02T00:33:16.305Z,998.77
2018-06-02T00:34:26.385Z,998.8
2018-06-02T00:35:36.459Z,998.79
2018-06-02T00:36:46.543Z,998.79
2018-06-02T00:37:56.624Z,998.83
2018-06-02T00:39:06.455Z,998.78
2018-06-02T00:40:16.287Z,998.84
2018-06-02T00:41:26.360Z,998.86
2018-06-02T00:42:36.451Z,998.84
2018-06-02T00:43:46.528Z,998.83
2018-06-02T00:44:56.352Z,998.85
2018-06-02T00:46:06.496Z,998.87
2018-06-02T00:47:16.302Z,998.82
2018-06-02T00:48:26.454Z,998.83
2018-06-02T00:49:36.528Z,998.79
2018-06-02T00:50:46.111Z,998.8
2018-06-02T00:51:56.186Z,998.75
2018-06-02T00:53:06.265Z,998.76
2018-06-02T00:54:16.371Z,998.75
2018-06-02T00:55:26.468Z,998.75
2018-06-02T00:56:36.290Z,998.77
2018-06-02T00:57:46.358Z,998.75
2018-06-02T00:58:56.167Z,998.75
2018-06-02T01:00:05.976Z,998.79
2018-06-02T01:01:16.069Z,998.76
2018-06-02T01:02:26.155Z,998.74
2018-06-02T01:03:36.241Z,998.75
2018-06-02T01:04:46.325Z,998.75
2018-06-02T01:05:56.471Z,998.74
2018-06-02T01:07:06.563Z,998.73
2018-06-02T01:08:16.657Z,998.72
2018-06-02T01:09:26.744Z,998.71
2018-06-02T01:10:36.817Z,998.71
2018-06-02T01:11:46.618Z,998.7
2018-06-02T01:12:56.428Z,998.71
2018-06-02T01:14:06.507Z,998.7
2018-06-02T01:15:16.602Z,998.69
2018-06-02T01:16:26.681Z,998.68
2018-06-02T01:17:37.013Z,998.67
2018-06-02T01:18:46.844Z,998.66
2018-06-02T01:19:56.907Z,998.67
2018-06-02T01:21:06.992Z,998.72
2018-06-02T01:22:16.815Z,998.73
2018-06-02T01:23:26.888Z,998.75
2018-06-02T01:24:36.959Z,998.78
2018-06-02T01:25:47.061Z,998.77
2018-06-02T01:26:57.149Z,998.77
2018-06-02T01:28:07.236Z,998.75
2018-06-02T01:29:17.350Z,998.74
2018-06-02T01:30:27.441Z,998.74
2018-06-02T01:31:37.246Z,998.72
2018-06-02T01:32:46.794Z,998.74
2018-06-02T01:33:56.611Z,998.7
2018-06-02T01:35:06.683Z,998.69
2018-06-02T01:36:16.767Z,998.66
2018-06-02T01:37:26.847Z,998.66
2018-06-02T01:38:36.925Z,998.65
2018-06-02T01:39:47.005Z,998.63
2018-06-02T01:40:56.840Z,998.59
2018-06-02T01:42:06.933Z,998.6
2018-06-02T01:43:16.799Z,998.6
2018-06-02T01:44:26.868Z,998.59
2018-06-02T01:45:36.952Z,998.62
2018-06-02T01:46:47.037Z,998.62
2018-06-02T01:47:57.127Z,998.61
2018-06-02T01:49:07.204Z,998.64
2018-06-02T01:50:17.273Z,998.63
2018-06-02T01:51:27.346Z,998.61
2018-06-02T01:52:37.428Z,998.68
2018-06-02T01:53:47.506Z,998.64
2018-06-02T01:54:57.613Z,998.63
2018-06-02T01:56:07.451Z,998.63
2018-06-02T01:57:17.523Z,998.63
2018-06-02T01:58:27.643Z,998.63
2018-06-02T01:59:37.729Z,998.62
2018-06-02T02:00:47.813Z,998.65
2018-06-02T02:01:57.889Z,998.66
2018-06-02T02:03:07.953Z,998.66
2018-06-02T02:04:18.093Z,998.64
2018-06-02T02:05:28.217Z,998.65
2018-06-02T02:06:38.038Z,998.61
2018-06-02T02:07:48.117Z,998.61
2018-06-02T02:08:57.926Z,998.65
2018-06-02T02:10:08.006Z,998.64
2018-06-02T02:11:18.077Z,998.67
2018-06-02T02:12:28.155Z,998.65
2018-06-02T02:13:38.262Z,998.69
2018-06-02T02:14:48.347Z,998.67
2018-06-02T02:15:58.428Z,998.71
2018-06-02T02:17:08.525Z,998.7
2018-06-02T02:18:18.082Z,998.7
2018-06-02T02:19:28.176Z,998.69
2018-06-02T02:20:38.265Z,998.69
2018-06-02T02:21:48.366Z,998.65
2018-06-02T02:22:58.461Z,998.69
2018-06-02T02:24:08.545Z,998.68
2018-06-02T02:25:18.641Z,998.67
2018-06-02T02:26:28.457Z,998.67
2018-06-02T02:27:38.605Z,998.63
2018-06-02T02:28:48.426Z,998.66
2018-06-02T02:29:58.511Z,998.63
2018-06-02T02:31:08.600Z,998.67
2018-06-02T02:32:18.681Z,998.67
2018-06-02T02:33:28.560Z,998.69
2018-06-02T02:34:38.650Z,998.71
2018-06-02T02:35:48.798Z,998.71
2018-06-02T02:36:58.879Z,998.71
2018-06-02T02:38:08.683Z,998.72
2018-06-02T02:39:18.786Z,998.74
2018-06-02T02:40:28.872Z,998.71
2018-06-02T02:41:38.696Z,998.72
2018-06-02T02:42:48.778Z,998.72
2018-06-02T02:43:58.863Z,998.71
2018-06-02T02:45:08.711Z,998.7
2018-06-02T02:46:18.511Z,998.7
2018-06-02T02:47:28.343Z,998.71
2018-06-02T02:48:38.547Z,998.67
2018-06-02T02:49:48.632Z,998.66
2018-06-02T02:50:58.712Z,998.66
2018-06-02T02:52:08.815Z,998.65
2018-06-02T02:53:18.649Z,998.69
2018-06-02T02:54:28.470Z,998.69
2018-06-02T02:55:38.545Z,998.69
2018-06-02T02:56:48.644Z,998.69
2018-06-02T02:57:58.454Z,998.71
2018-06-02T02:59:08.533Z,998.71
2018-06-02T03:00:18.640Z,998.7
2018-06-02T03:01:28.742Z,998.68
2018-06-02T03:02:38.847Z,998.7
2018-06-02T03:35:05.797Z,998.73
2018-06-02T03:36:15.857Z,998.81
2018-06-02T03:37:25.934Z,998.76
2018-06-02T03:38:36.017Z,998.82
2018-06-02T03:39:46.106Z,998.78
2018-06-02T03:40:55.994Z,998.82
2018-06-02T03:42:06.079Z,998.85
2018-06-02T03:43:16.172Z,998.82
2018-06-02T03:44:26.262Z,998.89
2018-06-02T03:45:36.346Z,998.88
2018-06-02T03:46:46.458Z,998.88
2018-06-02T03:47:56.533Z,998.86
2018-06-02T03:49:06.615Z,998.86
2018-06-02T03:50:16.167Z,998.84
2018-06-02T03:51:26.233Z,998.84
2018-06-02T03:52:36.064Z,998.84
2018-06-02T03:53:46.136Z,998.88
2018-06-02T03:54:56.204Z,998.92
2018-06-02T03:56:06.304Z,998.93
2018-06-02T03:57:16.377Z,998.96
2018-06-02T03:58:26.197Z,998.99
2018-06-02T03:59:36.022Z,998.99
2018-06-02T04:00:46.114Z,998.94
2018-06-02T04:01:56.180Z,998.95
2018-06-02T04:03:06.242Z,998.94
2018-06-02T04:04:16.072Z,998.93
2018-06-02T04:05:25.889Z,998.94
2018-06-02T04:06:35.967Z,998.91
2018-06-02T04:07:46.057Z,998.97
2018-06-02T04:08:56.137Z,998.94
2018-06-02T04:10:06.242Z,998.93
2018-06-02T04:11:16.070Z,998.9
2018-06-02T04:12:26.150Z,998.91
2018-06-02T04:13:36.238Z,998.92
2018-06-02T04:14:46.334Z,998.94
2018-06-02T04:15:56.216Z,998.95
2018-06-02T04:17:06.002Z,998.91
2018-06-02T04:18:16.105Z,998.93
2018-06-02T04:19:25.931Z,999
2018-06-02T04:20:36.021Z,998.97
2018-06-02T04:21:46.158Z,999.02
2018-06-02T04:22:56.254Z,999.22
2018-06-02T04:24:06.071Z,999.4
2018-06-02T04:25:15.896Z,999.48
2018-06-02T04:26:25.988Z,999.52
2018-06-02T04:27:36.063Z,999.58
2018-06-02T04:28:46.152Z,999.46
2018-06-02T04:29:55.979Z,999.41
2018-06-02T04:31:05.808Z,999.42
2018-06-02T04:32:15.892Z,999.42
2018-06-02T04:33:25.968Z,999.36
2018-06-02T04:34:36.063Z,999.23
2018-06-02T04:35:46.166Z,999.04
2018-06-02T04:36:55.997Z,999.24
2018-06-02T04:38:06.092Z,999.38
2018-06-02T04:39:16.221Z,999.37
2018-06-02T04:40:26.295Z,999.43
2018-06-02T04:41:36.454Z,999.44
2018-06-02T04:42:46.598Z,999.47
2018-06-02T04:43:56.669Z,999.48
2018-06-02T04:45:06.537Z,999.52
2018-06-02T04:46:16.631Z,999.51
2018-06-02T04:47:26.708Z,999.53
2018-06-02T04:48:36.529Z,999.58
2018-06-02T04:49:46.620Z,999.62
2018-06-02T04:50:56.725Z,999.63
2018-06-02T04:52:06.803Z,999.69
2018-06-02T04:53:16.895Z,999.75
2018-06-02T04:54:26.986Z,999.77
2018-06-02T04:55:37.055Z,999.75
2018-06-02T04:56:46.885Z,999.65
2018-06-02T04:57:57.303Z,999.74
2018-06-02T04:59:07.387Z,999.56
2018-06-02T05:00:16.951Z,999.73
2018-06-02T05:01:27.058Z,999.48
2018-06-02T05:02:37.129Z,999.42
2018-06-02T05:03:47.207Z,999.46
2018-06-02T05:04:57.278Z,999.47
2018-06-02T05:06:07.113Z,999.64
2018-06-02T05:07:17.199Z,999.62
2018-06-02T05:08:27.336Z,999.66
2018-06-02T05:09:37.175Z,999.65
2018-06-02T05:10:47.278Z,999.63
2018-06-02T05:11:57.105Z,999.68
2018-06-02T05:13:06.925Z,999.65
2018-06-02T05:14:17.007Z,999.61
2018-06-02T05:15:27.104Z,999.67
2018-06-02T05:16:37.195Z,999.69
2018-06-02T05:17:47.267Z,999.7
2018-06-02T05:18:57.354Z,1000
2018-06-02T05:20:07.437Z,1000.4
2018-06-02T05:21:17.534Z,1000.42
2018-06-02T05:22:27.606Z,1000.27
2018-06-02T05:23:37.703Z,1000.32
2018-06-02T05:24:47.554Z,1000.19
2018-06-02T05:25:57.429Z,1000.05
2018-06-02T05:27:07.523Z,1000.21
2018-06-02T05:28:17.359Z,1000.27
2018-06-02T05:29:27.443Z,1000.21
2018-06-02T05:30:37.524Z,1000.28
2018-06-02T05:31:47.372Z,1000.23
2018-06-02T05:32:57.455Z,1000.22
2018-06-02T05:34:07.547Z,1000.18
2018-06-02T05:35:17.443Z,1000.07
2018-06-02T05:36:27.771Z,1000.15
2018-06-02T05:37:37.865Z,1000.16
2018-06-02T05:38:47.970Z,1000.12
2018-06-02T05:39:57.546Z,1000.03
2018-06-02T05:41:07.642Z,1000.02
2018-06-02T05:42:17.458Z,1000.11
2018-06-02T05:43:27.601Z,1000.15
2018-06-02T05:44:37.699Z,1000.15
2018-06-02T05:45:47.788Z,1000.07
2018-06-02T05:46:57.804Z,1000.02
2018-06-02T05:48:07.905Z,1000
2018-06-02T05:49:17.993Z,1000.06
2018-06-02T05:50:28.103Z,1000.12
2018-06-02T05:51:38.193Z,1000.02
2018-06-02T05:52:48.286Z,999.98
2018-06-02T05:53:58.404Z,1000.1
2018-06-02T05:55:08.543Z,1000.16
2018-06-02T05:56:18.368Z,1000.07
2018-06-02T05:57:28.466Z,999.98
2018-06-02T05:58:38.553Z,999.95
2018-06-02T05:59:48.684Z,1000.03
2018-06-02T06:00:58.400Z,1000.01
2018-06-02T06:02:08.468Z,1000.01
2018-06-02T06:03:18.299Z,999.96
2018-06-02T06:04:28.395Z,999.99
2018-06-02T06:05:38.234Z,1000.04
2018-06-02T06:06:48.116Z,999.9
2018-06-02T06:07:57.961Z,999.98
2018-06-02T06:09:08.060Z,999.89
2018-06-02T06:10:18.148Z,999.67
2018-06-02T06:11:28.246Z,999.82
2018-06-02T06:12:38.085Z,999.68
2018-06-02T06:13:48.204Z,999.96
2018-06-02T06:14:58.019Z,999.98
2018-06-02T06:16:07.848Z,999.99
2018-06-02T06:17:17.943Z,999.93
2018-06-02T06:18:28.100Z,999.75
2018-06-02T06:19:38.218Z,999.69
2018-06-02T06:20:48.365Z,999.74
2018-06-02T06:21:58.456Z,999.73
2018-06-02T06:23:08.316Z,999.92
2018-06-02T06:24:18.464Z,999.77
2018-06-02T06:25:28.561Z,999.64
2018-06-02T06:26:38.645Z,999.74
2018-06-02T06:27:48.781Z,999.68
2018-06-02T06:28:58.881Z,999.64
2018-06-02T06:30:08.980Z,999.67
2018-06-02T06:31:18.810Z,999.68
2018-06-02T06:32:28.644Z,999.67
2018-06-02T06:33:38.747Z,999.66
2018-06-02T06:34:48.851Z,999.64
2018-06-02T06:35:58.692Z,999.81
2018-06-02T06:37:08.796Z,999.77
2018-06-02T06:38:18.873Z,999.84
2018-06-02T06:39:28.958Z,999.76
2018-06-02T06:40:38.791Z,999.7
2018-06-02T06:41:48.982Z,999.78
2018-06-02T06:42:58.815Z,999.79
2018-06-02T06:44:08.632Z,999.74
2018-06-02T06:45:18.730Z,999.71
2018-06-02T06:46:28.880Z,999.68
2018-06-02T06:47:39.196Z,999.56
2018-06-02T06:48:49.283Z,999.65
2018-06-02T06:49:59.393Z,999.64
2018-06-02T06:51:09.471Z,999.66
2018-06-02T06:52:19.560Z,999.57
2018-06-02T06:53:29.212Z,999.57
2018-06-02T06:54:39.302Z,999.54
2018-06-02T06:55:49.393Z,999.57
2018-06-02T06:56:59.497Z,999.53
2018-06-02T06:58:09.338Z,999.51
2018-06-02T06:59:19.482Z,999.52
2018-06-02T07:00:29.575Z,999.51
2018-06-02T07:01:39.660Z,999.54
2018-06-02T07:02:49.758Z,999.55
2018-06-02T07:03:59.868Z,999.58
2018-06-02T07:05:09.956Z,999.57
2018-06-02T07:06:20.038Z,999.56
2018-06-02T07:07:30.128Z,999.51
2018-06-02T07:08:40.236Z,999.52
2018-06-02T07:09:50.348Z,999.5
2018-06-02T07:11:00.189Z,999.5
2018-06-02T07:12:10.022Z,999.49
2018-06-02T07:13:19.837Z,999.49
2018-06-02T07:14:29.928Z,999.53
2018-06-02T07:15:40.073Z,999.53
2018-06-02T07:16:50.304Z,999.56
2018-06-02T07:18:00.381Z,999.54
2018-06-02T07:19:10.479Z,999.47
2018-06-02T07:20:20.582Z,999.57
2018-06-02T07:21:30.659Z,999.57
2018-06-02T07:22:40.806Z,999.5
2018-06-02T07:23:50.358Z,999.52
2018-06-02T07:25:00.445Z,999.51
2018-06-02T07:26:10.554Z,999.56
2018-06-02T07:27:20.658Z,999.53
2018-06-02T07:28:30.790Z,999.56
2018-06-02T07:29:40.877Z,999.51
2018-06-02T07:30:50.219Z,999.5
2018-06-02T07:32:00.041Z,999.44
2018-06-02T07:33:10.123Z,999.39
2018-06-02T07:34:20.278Z,999.49
2018-06-02T07:35:30.366Z,999.4
2018-06-02T07:36:40.197Z,999.46
2018-06-02T07:37:50.055Z,999.49
2018-06-02T07:39:00.142Z,999.4
2018-06-02T07:40:09.962Z,999.49
2018-06-02T07:41:20.040Z,999.51
2018-06-02T07:42:29.849Z,999.51
2018-06-02T07:43:39.695Z,999.52
2018-06-02T07:44:49.777Z,999.49
2018-06-02T07:45:59.591Z,999.5
2018-06-02T07:47:09.423Z,999.46
2018-06-02T07:48:19.519Z,999.49
2018-06-02T07:49:29.636Z,999.55
2018-06-02T07:50:39.448Z,999.54
2018-06-02T07:51:49.562Z,999.54
2018-06-02T07:52:59.661Z,999.56
2018-06-02T07:54:09.794Z,999.62
2018-06-02T07:55:19.896Z,999.73
2018-06-02T07:56:29.972Z,999.65
2018-06-02T07:57:39.819Z,999.56
2018-06-02T07:58:50.089Z,999.55
2018-06-02T08:00:00.178Z,999.69
2018-06-02T08:01:09.994Z,999.62
2018-06-02T08:02:19.560Z,999.64
2018-06-02T08:03:29.642Z,999.66
2018-06-02T08:04:39.765Z,999.7
2018-06-02T08:05:49.862Z,999.7
2018-06-02T08:06:59.687Z,999.64
2018-06-02T08:08:09.774Z,999.69
2018-06-02T08:09:19.650Z,999.65
2018-06-02T08:10:29.779Z,999.69
2018-06-02T08:11:39.866Z,999.71
2018-06-02T08:12:49.960Z,999.78
2018-06-02T08:14:00.059Z,999.75
2018-06-02T08:15:10.240Z,999.75
2018-06-02T08:16:20.322Z,999.77
2018-06-02T08:17:30.150Z,999.76
2018-06-02T08:18:40.247Z,999.86
2018-06-02T08:19:50.347Z,999.85
2018-06-02T08:21:00.160Z,999.87
2018-06-02T08:22:10.250Z,999.84
2018-06-02T08:23:20.085Z,999.83
2018-06-02T08:24:30.204Z,999.96
2018-06-02T08:25:40.292Z,999.9
2018-06-02T08:26:50.187Z,999.89
2018-06-02T08:28:00.279Z,999.93
2018-06-02T08:29:10.381Z,999.86
2018-06-02T08:30:20.456Z,999.94
2018-06-02T08:31:30.019Z,999.96
2018-06-02T08:32:40.106Z,999.91
2018-06-02T08:33:50.267Z,999.95
2018-06-02T08:35:00.109Z,999.97
2018-06-02T08:36:10.178Z,999.94
2018-06-02T08:37:20.287Z,999.95
2018-06-02T08:38:30.393Z,999.94
2018-06-02T08:39:40.490Z,999.95
2018-06-02T08:40:50.313Z,999.99
2018-06-02T08:42:00.450Z,999.95
2018-06-02T08:43:10.551Z,999.99
2018-06-02T08:44:20.665Z,999.93
2018-06-02T08:45:30.805Z,999.96
2018-06-02T08:46:40.887Z,999.92
2018-06-02T08:47:50.995Z,999.98
2018-06-02T08:49:01.094Z,999.94
2018-06-02T08:50:11.231Z,999.89
2018-06-02T08:51:21.323Z,999.97
2018-06-02T08:52:31.143Z,999.99
2018-06-02T08:53:41.228Z,999.97
2018-06-02T08:54:51.114Z,999.93
2018-06-02T08:56:01.245Z,999.93
2018-06-02T08:57:11.072Z,1000.02
2018-06-02T08:58:21.163Z,999.98
2018-06-02T08:59:31.296Z,999.96
2018-06-02T09:00:41.392Z,999.91
2018-06-02T09:01:51.219Z,999.94
2018-06-02T09:03:01.287Z,999.94
2018-06-02T09:04:10.907Z,1000.04
2018-06-02T09:05:21.015Z,999.93
2018-06-02T09:06:31.392Z,999.96
2018-06-02T09:07:41.433Z,999.99
2018-06-02T09:08:51.542Z,999.93
2018-06-02T09:10:01.637Z,999.95
2018-06-02T09:11:11.724Z,999.95
2018-06-02T09:12:21.545Z,999.96
2018-06-02T09:13:31.368Z,999.99
2018-06-02T09:14:41.187Z,1000.01
2018-06-02T09:15:51.291Z,999.99
2018-06-02T09:17:01.127Z,1000.03
2018-06-02T09:18:11.265Z,1000.02
2018-06-02T09:19:21.375Z,999.98
2018-06-02T09:20:31.470Z,999.97
2018-06-02T09:21:41.630Z,999.95
2018-06-02T09:22:51.957Z,999.93
2018-06-02T09:24:02.046Z,999.94
2018-06-02T09:25:11.622Z,999.96
2018-06-02T09:26:21.706Z,999.93
2018-06-02T09:27:31.827Z,999.83
2018-06-02T09:28:41.924Z,999.89
2018-06-02T09:29:52.027Z,999.87
2018-06-02T09:31:01.870Z,999.86
2018-06-02T09:32:11.969Z,999.89
2018-06-02T09:33:21.792Z,999.87
2018-06-02T09:34:31.625Z,999.81
2018-06-02T09:35:41.719Z,999.83
2018-06-02T09:36:51.831Z,999.85
2018-06-02T09:38:01.929Z,999.79
2018-06-02T09:39:12.028Z,999.89
2018-06-02T09:40:22.119Z,999.8
2018-06-02T09:41:31.939Z,999.8
2018-06-02T09:42:41.517Z,999.84
2018-06-02T09:43:51.347Z,999.81
2018-06-02T09:45:01.429Z,999.81
2018-06-02T09:46:11.562Z,999.81
2018-06-02T09:47:21.660Z,999.76
2018-06-02T09:48:31.754Z,999.73
2018-06-02T09:49:41.865Z,999.7
2018-06-02T09:50:51.981Z,999.69
2018-06-02T09:52:02.076Z,999.65
2018-06-02T09:53:12.189Z,999.6
2018-06-02T09:54:22.333Z,999.54
2018-06-02T09:55:32.179Z,999.62
2018-06-02T09:56:42.257Z,999.52
2018-06-02T09:57:52.348Z,999.59
2018-06-02T09:59:02.441Z,999.51
2018-06-02T10:00:12.545Z,999.46
2018-06-02T10:01:22.626Z,999.44
2018-06-02T10:02:32.716Z,999.47
2018-06-02T10:03:42.822Z,999.38
2018-06-02T10:04:52.928Z,999.39
2018-06-02T10:06:03.008Z,999.38
2018-06-02T10:07:12.844Z,999.44
2018-06-02T10:08:22.928Z,999.38
2018-06-02T10:09:32.770Z,999.45
2018-06-02T10:10:42.871Z,999.44
2018-06-02T10:11:52.705Z,999.4
2018-06-02T10:13:02.533Z,999.44
2018-06-02T10:14:12.625Z,999.41
2018-06-02T10:15:22.714Z,999.45
2018-06-02T10:16:32.844Z,999.41
2018-06-02T10:17:42.951Z,999.44
2018-06-02T10:18:53.064Z,999.44
2018-06-02T10:20:02.611Z,999.39
2018-06-02T10:21:12.704Z,999.38
2018-06-02T10:22:22.554Z,999.45
2018-06-02T10:23:32.655Z,999.45
2018-06-02T10:24:42.487Z,999.45
2018-06-02T10:25:52.594Z,999.44
2018-06-02T10:27:02.700Z,999.4
2018-06-02T10:28:12.270Z,999.5
2018-06-02T10:29:21.894Z,999.48
2018-06-02T10:30:31.767Z,999.47
2018-06-02T10:31:41.867Z,999.39
2018-06-02T10:32:51.979Z,999.41
2018-06-02T10:34:02.076Z,999.47
2018-06-02T10:35:12.162Z,999.47
2018-06-02T10:36:22.350Z,999.44
2018-06-02T10:37:32.441Z,999.41
2018-06-02T10:38:42.551Z,999.4
2018-06-02T10:39:52.680Z,999.41
2018-06-02T10:41:02.788Z,999.37
2018-06-02T10:42:12.890Z,999.38
2018-06-02T10:43:22.731Z,999.43
2018-06-02T10:44:32.603Z,999.41
2018-06-02T10:45:42.734Z,999.45
2018-06-02T10:46:52.867Z,999.42
2018-06-02T10:48:02.955Z,999.45
2018-06-02T10:49:12.783Z,999.45
2018-06-02T10:50:22.868Z,999.38
2018-06-02T10:51:32.727Z,999.4
2018-06-02T10:52:42.571Z,999.37
2018-06-02T10:53:52.657Z,999.46
2018-06-02T10:55:02.490Z,999.45
2018-06-02T10:56:12.601Z,999.47
2018-06-02T10:57:22.713Z,999.49
2018-06-02T10:58:32.823Z,999.52
2018-06-02T10:59:42.668Z,999.61
2018-06-02T11:00:52.774Z,999.59
2018-06-02T11:02:02.864Z,999.5
2018-06-02T11:03:12.975Z,999.51
2018-06-02T11:04:22.577Z,999.47
2018-06-02T11:05:32.681Z,999.54
2018-06-02T11:06:42.789Z,999.46
2018-06-02T11:07:52.899Z,999.52
2018-06-02T11:09:03.067Z,999.48
2018-06-02T11:10:13.401Z,999.44
2018-06-02T11:11:23.510Z,999.53
2018-06-02T11:12:33.360Z,999.53
2018-06-02T11:13:43.473Z,999.52
2018-06-02T11:14:53.576Z,999.54
2018-06-02T11:16:04.063Z,999.57
2018-06-02T11:17:13.910Z,999.49
2018-06-02T11:18:24.047Z,999.46
2018-06-02T11:19:34.159Z,999.51
2018-06-02T11:20:44.411Z,999.47
2018-06-02T11:21:54.522Z,999.42
2018-06-02T11:23:04.629Z,999.47
2018-06-02T11:24:14.725Z,999.45
2018-06-02T11:25:24.869Z,999.41
2018-06-02T11:26:34.992Z,999.39
2018-06-02T11:27:44.850Z,999.36
2018-06-02T11:28:54.961Z,999.36
2018-06-02T11:30:05.059Z,999.32
2018-06-02T11:31:14.903Z,999.33
2018-06-02T11:32:25.055Z,999.3
2018-06-02T11:33:34.949Z,999.35
2018-06-02T11:34:45.060Z,999.33
2018-06-02T11:35:55.260Z,999.37
2018-06-02T11:37:05.134Z,999.3
2018-06-02T11:38:14.998Z,999.31
2018-06-02T11:39:24.844Z,999.43
2018-06-02T11:40:34.688Z,999.25
2018-06-02T11:41:44.770Z,999.25
2018-06-02T11:42:54.353Z,999.22
2018-06-02T11:44:04.509Z,999.2
2018-06-02T11:45:15.062Z,999.21
2018-06-02T11:46:25.155Z,999.2
2018-06-02T11:47:35.248Z,999.22
2018-06-02T11:48:45.368Z,999.32
2018-06-02T11:49:54.924Z,999.27
2018-06-02T11:51:05.101Z,999.25
2018-06-02T11:52:15.198Z,999.2
2018-06-02T11:53:25.273Z,999.19
2018-06-02T11:54:35.096Z,999.23
2018-06-02T11:55:45.199Z,999.14
2018-06-02T11:56:55.311Z,999.14
2018-06-02T11:58:05.395Z,999.11
2018-06-02T11:59:15.492Z,999.05
2018-06-02T12:00:25.589Z,999.14
2018-06-02T12:01:35.707Z,999.08
2018-06-02T12:02:45.811Z,999.05
2018-06-02T12:03:55.647Z,999.07
2018-06-02T12:05:05.737Z,999.03
2018-06-02T12:06:15.846Z,999.06
2018-06-02T12:07:25.937Z,999.02
2018-06-02T12:08:36.039Z,999.01
2018-06-02T12:09:46.128Z,998.97
2018-06-02T12:10:56.225Z,998.97
2018-06-02T12:12:06.066Z,998.99
2018-06-02T12:13:15.622Z,998.99
2018-06-02T12:14:25.719Z,998.91
2018-06-02T12:15:35.824Z,998.98
2018-06-02T12:16:45.918Z,998.98
2018-06-02T12:17:56.007Z,998.89
2018-06-02T12:19:06.109Z,998.94
2018-06-02T12:20:16.185Z,998.89
2018-06-02T12:21:26.025Z,998.94
2018-06-02T12:22:35.596Z,998.96
2018-06-02T12:23:45.739Z,998.91
2018-06-02T12:24:55.597Z,998.9
2018-06-02T12:26:05.711Z,998.82
2018-06-02T12:27:15.822Z,998.93
2018-06-02T12:28:25.937Z,998.89
2018-06-02T12:29:36.115Z,998.89
2018-06-02T12:30:45.665Z,998.9
2018-06-02T12:31:55.512Z,998.86
2018-06-02T12:33:05.625Z,998.95
2018-06-02T12:34:15.734Z,998.89
2018-06-02T12:35:25.868Z,998.87
2018-06-02T12:36:35.984Z,998.86
2018-06-02T12:37:46.087Z,998.88
2018-06-02T12:38:56.178Z,998.88
2018-06-02T12:40:06.080Z,998.78
2018-06-02T12:41:16.380Z,998.79
2018-06-02T12:42:26.481Z,998.76
2018-06-02T12:43:36.588Z,998.74
2018-06-02T12:44:46.409Z,998.78
2018-06-02T12:45:56.493Z,998.74
2018-06-02T12:47:06.596Z,998.65
2018-06-02T12:48:16.681Z,998.66
2018-06-02T12:49:26.792Z,998.66
2018-06-02T12:50:36.888Z,998.6
2018-06-02T12:51:47.022Z,998.6
2018-06-02T12:52:56.859Z,998.63
2018-06-02T12:54:06.681Z,998.6
2018-06-02T12:55:16.796Z,998.63
2018-06-02T12:56:26.912Z,998.6
2018-06-02T12:57:37.005Z,998.61
2018-06-02T12:58:47.143Z,998.6
2018-06-02T12:59:57.272Z,998.58
2018-06-02T13:01:07.431Z,998.57
2018-06-02T13:02:17.541Z,998.54
2018-06-02T13:03:27.618Z,998.61
2018-06-02T13:04:37.510Z,998.53
2018-06-02T13:05:47.594Z,998.6
2018-06-02T13:06:57.425Z,998.59
2018-06-02T13:08:07.530Z,998.56
2018-06-02T13:09:17.638Z,998.53
2018-06-02T13:10:27.455Z,998.56
2018-06-02T13:11:37.573Z,998.49
2018-06-02T13:12:47.673Z,998.58
2018-06-02T13:13:57.768Z,998.54
2018-06-02T13:15:07.866Z,998.51
2018-06-02T13:16:17.963Z,998.45
2018-06-02T13:17:28.056Z,998.49
2018-06-02T13:18:38.164Z,998.47
2018-06-02T13:19:47.717Z,998.47
2018-06-02T13:20:57.817Z,998.49
2018-06-02T13:22:07.705Z,998.45
2018-06-02T13:23:17.833Z,998.45
2018-06-02T13:24:28.243Z,998.45
2018-06-02T13:25:38.339Z,998.44
2018-06-02T13:26:48.178Z,998.46
2018-06-02T13:27:58.030Z,998.39
2018-06-02T13:29:07.894Z,998.39
2018-06-02T13:30:17.988Z,998.4
2018-06-02T13:31:28.097Z,998.46
2018-06-02T13:32:38.172Z,998.42
2018-06-02T13:33:47.995Z,998.48
2018-06-02T13:34:58.085Z,998.44
2018-06-02T13:36:08.195Z,998.44
2018-06-02T13:37:18.016Z,998.44
2018-06-02T13:38:28.133Z,998.51
2018-06-02T13:39:38.248Z,998.47
2018-06-02T13:40:48.356Z,998.41
2018-06-02T13:41:58.479Z,998.4
2018-06-02T13:43:08.695Z,998.41
2018-06-02T13:44:18.290Z,998.41
2018-06-02T13:45:28.397Z,998.44
2018-06-02T13:46:38.534Z,998.39
2018-06-02T13:47:48.704Z,998.35
2018-06-02T13:48:58.840Z,998.34
2018-06-02T13:50:08.988Z,998.34
2018-06-02T13:51:18.954Z,998.32
2018-06-02T13:52:29.347Z,998.35
2018-06-02T13:53:39.471Z,998.37
2018-06-02T13:54:49.592Z,998.34
2018-06-02T13:55:59.707Z,998.29
2018-06-02T13:57:09.893Z,998.31
2018-06-02T13:58:20.034Z,998.3
2018-06-02T13:59:30.178Z,998.33
2018-06-02T14:00:40.319Z,998.33
2018-06-02T14:01:50.449Z,998.29
2018-06-02T14:03:00.655Z,998.3
2018-06-02T14:04:10.807Z,998.36
2018-06-02T14:05:20.932Z,998.34
2018-06-02T14:06:31.088Z,998.38
2018-06-02T14:07:41.203Z,998.33
2018-06-02T14:08:51.060Z,998.31
2018-06-02T14:10:01.191Z,998.3
2018-06-02T14:11:11.316Z,998.3
2018-06-02T14:12:21.432Z,998.27
2018-06-02T14:13:31.622Z,998.26
2018-06-02T14:14:41.756Z,998.24
2018-06-02T14:15:51.915Z,998.23
2018-06-02T14:17:01.518Z,998.2
2018-06-02T14:18:11.361Z,998.14
2018-06-02T14:19:21.492Z,998.1
2018-06-02T14:20:31.627Z,998.09
2018-06-02T14:21:41.758Z,998.08
2018-06-02T14:22:51.897Z,998
2018-06-02T14:24:02.005Z,998.05
2018-06-02T14:25:11.924Z,997.99
2018-06-02T14:26:22.132Z,998.01
2018-06-02T14:27:31.989Z,997.91
2018-06-02T14:28:42.130Z,997.96
2018-06-02T14:29:52.243Z,997.89
2018-06-02T14:31:02.375Z,997.93
2018-06-02T14:32:12.579Z,997.84
2018-06-02T14:33:22.786Z,997.88
2018-06-02T14:34:32.654Z,997.85
2018-06-02T14:35:42.776Z,997.85
2018-06-02T14:36:52.917Z,997.81
2018-06-02T14:38:03.192Z,997.78
2018-06-02T14:39:13.790Z,997.83
2018-06-02T14:40:23.640Z,997.8
2018-06-02T14:41:33.796Z,997.8
2018-06-02T14:42:43.924Z,997.85
2018-06-02T14:43:54.090Z,997.87
2018-06-02T14:45:04.235Z,997.89
2018-06-02T14:46:14.384Z,997.79
2018-06-02T14:47:24.510Z,997.81
2018-06-02T14:48:34.659Z,997.81
2018-06-02T14:49:44.863Z,997.82
2018-06-02T14:50:55.005Z,997.76
2018-06-02T14:52:05.149Z,997.77
2018-06-02T14:53:15.331Z,997.8
2018-06-02T14:54:25.473Z,997.75
2018-06-02T14:55:35.671Z,997.69
2018-06-02T14:56:45.838Z,997.63
2018-06-02T14:57:56.344Z,997.68
2018-06-02T14:59:06.440Z,997.69
2018-06-02T15:00:16.563Z,997.63
2018-06-02T15:01:26.407Z,997.65
2018-06-02T15:02:36.520Z,997.59
2018-06-02T15:03:46.653Z,997.61
2018-06-02T15:04:56.908Z,997.63
2018-06-02T15:06:07.053Z,997.54